sensor_id;sensor_type;location;lat;lon;timestamp;P1;durP1;ratioP1;P2;durP2;ratioP2
4676;SDS011;2352;48.180;11.478;2023-03-11T00:00:26;0.50;;;0.50;;
4676;SDS011;2352;48.180;11.478;2023-03-11T00:03:31;0.80;;;0.80;;
4676;SDS011;2352;48.180;11.478;2023-03-11T00:06:34;0.63;;;0.63;;
4676;SDS011;2352;48.180;11.478;2023-03-11T00:09:39;0.70;;;0.70;;
4676;SDS011;2352;48.180;11.478;2023-03-11T00:12:41;0.60;;;0.60;;
4676;SDS011;2352;48.180;11.478;2023-03-11T00:15:45;0.67;;;0.67;;
4676;SDS011;2352;48.180;11.478;2023-03-11T00:18:49;0.60;;;0.60;;
4676;SDS011;2352;48.180;11.478;2023-03-11T00:21:52;0.70;;;0.60;;
4676;SDS011;2352;48.180;11.478;2023-03-11T00:24:57;0.60;;;0.60;;
4676;SDS011;2352;48.180;11.478;2023-03-11T00:28:00;0.60;;;0.60;;
4676;SDS011;2352;48.180;11.478;2023-03-11T00:31:03;0.93;;;0.80;;
4676;SDS011;2352;48.180;11.478;2023-03-11T00:34:06;0.57;;;0.57;;
4676;SDS011;2352;48.180;11.478;2023-03-11T00:37:09;0.70;;;0.70;;
4676;SDS011;2352;48.180;11.478;2023-03-11T00:40:14;0.57;;;0.40;;
4676;SDS011;2352;48.180;11.478;2023-03-11T00:43:19;0.70;;;0.70;;
4676;SDS011;2352;48.180;11.478;2023-03-11T00:46:22;0.50;;;0.50;;
4676;SDS011;2352;48.180;11.478;2023-03-11T00:49:25;0.60;;;0.60;;
4676;SDS011;2352;48.180;11.478;2023-03-11T00:52:28;0.63;;;0.63;;
4676;SDS011;2352;48.180;11.478;2023-03-11T00:55:32;0.50;;;0.50;;
4676;SDS011;2352;48.180;11.478;2023-03-11T00:58:36;0.70;;;0.70;;
4676;SDS011;2352;48.180;11.478;2023-03-11T01:01:39;0.80;;;0.80;;
4676;SDS011;2352;48.180;11.478;2023-03-11T01:04:42;0.80;;;0.50;;
4676;SDS011;2352;48.180;11.478;2023-03-11T01:07:45;0.93;;;0.93;;
4676;SDS011;2352;48.180;11.478;2023-03-11T01:10:49;0.80;;;0.80;;
4676;SDS011;2352;48.180;11.478;2023-03-11T01:13:52;0.50;;;0.50;;
4676;SDS011;2352;48.180;11.478;2023-03-11T01:16:55;0.80;;;0.80;;
4676;SDS011;2352;48.180;11.478;2023-03-11T01:19:57;0.53;;;0.53;;
4676;SDS011;2352;48.180;11.478;2023-03-11T01:23:00;0.60;;;0.60;;
4676;SDS011;2352;48.180;11.478;2023-03-11T01:26:05;0.70;;;0.70;;
4676;SDS011;2352;48.180;11.478;2023-03-11T01:29:07;0.77;;;0.60;;
4676;SDS011;2352;48.180;11.478;2023-03-11T01:32:10;0.70;;;0.70;;
4676;SDS011;2352;48.180;11.478;2023-03-11T01:35:14;0.50;;;0.50;;
4676;SDS011;2352;48.180;11.478;2023-03-11T01:38:18;0.63;;;0.63;;
4676;SDS011;2352;48.180;11.478;2023-03-11T01:41:22;0.97;;;0.70;;
4676;SDS011;2352;48.180;11.478;2023-03-11T01:44:25;0.60;;;0.60;;
4676;SDS011;2352;48.180;11.478;2023-03-11T01:47:33;0.47;;;0.47;;
4676;SDS011;2352;48.180;11.478;2023-03-11T01:50:39;0.63;;;0.50;;
4676;SDS011;2352;48.180;11.478;2023-03-11T01:53:46;0.53;;;0.50;;
4676;SDS011;2352;48.180;11.478;2023-03-11T01:56:50;2.77;;;0.80;;
4676;SDS011;2352;48.180;11.478;2023-03-11T01:59:55;0.50;;;0.50;;
4676;SDS011;2352;48.180;11.478;2023-03-11T02:03:01;0.70;;;0.70;;
4676;SDS011;2352;48.180;11.478;2023-03-11T02:06:11;0.60;;;0.60;;
4676;SDS011;2352;48.180;11.478;2023-03-11T02:09:17;0.47;;;0.47;;
4676;SDS011;2352;48.180;11.478;2023-03-11T02:12:22;1.13;;;0.87;;
4676;SDS011;2352;48.180;11.478;2023-03-11T02:15:25;0.77;;;0.77;;
4676;SDS011;2352;48.180;11.478;2023-03-11T02:18:28;0.60;;;0.60;;
4676;SDS011;2352;48.180;11.478;2023-03-11T02:21:31;0.70;;;0.70;;
4676;SDS011;2352;48.180;11.478;2023-03-11T02:24:36;0.87;;;0.60;;
4676;SDS011;2352;48.180;11.478;2023-03-11T02:27:46;0.50;;;0.50;;
4676;SDS011;2352;48.180;11.478;2023-03-11T02:30:51;0.57;;;0.57;;
4676;SDS011;2352;48.180;11.478;2023-03-11T02:33:54;4.17;;;1.03;;
4676;SDS011;2352;48.180;11.478;2023-03-11T02:37:03;0.50;;;0.50;;
4676;SDS011;2352;48.180;11.478;2023-03-11T02:40:27;0.37;;;0.37;;
4676;SDS011;2352;48.180;11.478;2023-03-11T02:43:51;0.60;;;0.57;;
4676;SDS011;2352;48.180;11.478;2023-03-11T02:46:54;0.80;;;0.80;;
4676;SDS011;2352;48.180;11.478;2023-03-11T02:49:58;3.60;;;0.50;;
4676;SDS011;2352;48.180;11.478;2023-03-11T02:53:01;0.40;;;0.40;;
4676;SDS011;2352;48.180;11.478;2023-03-11T02:56:04;0.40;;;0.40;;
4676;SDS011;2352;48.180;11.478;2023-03-11T02:59:09;0.63;;;0.63;;
4676;SDS011;2352;48.180;11.478;2023-03-11T03:02:12;1.37;;;0.93;;
4676;SDS011;2352;48.180;11.478;2023-03-11T03:05:15;0.73;;;0.70;;
4676;SDS011;2352;48.180;11.478;2023-03-11T03:08:18;0.67;;;0.67;;
4676;SDS011;2352;48.180;11.478;2023-03-11T03:11:20;0.70;;;0.70;;
4676;SDS011;2352;48.180;11.478;2023-03-11T03:14:25;1.37;;;0.80;;
4676;SDS011;2352;48.180;11.478;2023-03-11T03:17:28;0.60;;;0.57;;
4676;SDS011;2352;48.180;11.478;2023-03-11T03:20:31;0.70;;;0.70;;
4676;SDS011;2352;48.180;11.478;2023-03-11T03:23:34;0.70;;;0.70;;
4676;SDS011;2352;48.180;11.478;2023-03-11T03:26:38;1.00;;;1.00;;
4676;SDS011;2352;48.180;11.478;2023-03-11T03:29:42;1.10;;;0.90;;
4676;SDS011;2352;48.180;11.478;2023-03-11T03:32:45;0.80;;;0.80;;
4676;SDS011;2352;48.180;11.478;2023-03-11T03:35:48;0.77;;;0.77;;
4676;SDS011;2352;48.180;11.478;2023-03-11T03:38:52;0.70;;;0.70;;
4676;SDS011;2352;48.180;11.478;2023-03-11T03:41:55;0.63;;;0.60;;
4676;SDS011;2352;48.180;11.478;2023-03-11T03:44:59;0.70;;;0.70;;
4676;SDS011;2352;48.180;11.478;2023-03-11T03:48:03;1.03;;;0.67;;
4676;SDS011;2352;48.180;11.478;2023-03-11T03:51:08;1.27;;;1.17;;
4676;SDS011;2352;48.180;11.478;2023-03-11T03:54:12;0.60;;;0.60;;
4676;SDS011;2352;48.180;11.478;2023-03-11T03:57:14;1.53;;;0.60;;
4676;SDS011;2352;48.180;11.478;2023-03-11T04:00:19;1.73;;;0.70;;
4676;SDS011;2352;48.180;11.478;2023-03-11T04:03:22;0.60;;;0.60;;
4676;SDS011;2352;48.180;11.478;2023-03-11T04:06:26;0.60;;;0.60;;
4676;SDS011;2352;48.180;11.478;2023-03-11T04:09:29;0.90;;;0.73;;
4676;SDS011;2352;48.180;11.478;2023-03-11T04:12:32;0.70;;;0.70;;
4676;SDS011;2352;48.180;11.478;2023-03-11T04:15:37;0.70;;;0.70;;
4676;SDS011;2352;48.180;11.478;2023-03-11T04:18:40;1.00;;;0.90;;
4676;SDS011;2352;48.180;11.478;2023-03-11T04:21:43;0.70;;;0.70;;
4676;SDS011;2352;48.180;11.478;2023-03-11T04:24:46;0.63;;;0.63;;
4676;SDS011;2352;48.180;11.478;2023-03-11T04:27:49;1.03;;;1.00;;
4676;SDS011;2352;48.180;11.478;2023-03-11T04:30:53;0.80;;;0.80;;
4676;SDS011;2352;48.180;11.478;2023-03-11T04:33:57;0.90;;;0.90;;
4676;SDS011;2352;48.180;11.478;2023-03-11T04:37:00;1.30;;;1.00;;
4676;SDS011;2352;48.180;11.478;2023-03-11T04:40:03;1.17;;;1.00;;
4676;SDS011;2352;48.180;11.478;2023-03-11T04:43:07;1.93;;;0.83;;
4676;SDS011;2352;48.180;11.478;2023-03-11T04:46:12;1.40;;;1.30;;
4676;SDS011;2352;48.180;11.478;2023-03-11T04:49:15;0.70;;;0.70;;
4676;SDS011;2352;48.180;11.478;2023-03-11T04:52:17;0.80;;;0.80;;
4676;SDS011;2352;48.180;11.478;2023-03-11T04:55:21;0.90;;;0.90;;
4676;SDS011;2352;48.180;11.478;2023-03-11T04:58:24;1.53;;;0.77;;
4676;SDS011;2352;48.180;11.478;2023-03-11T05:01:28;0.97;;;0.97;;
4676;SDS011;2352;48.180;11.478;2023-03-11T05:04:31;1.57;;;0.80;;
4676;SDS011;2352;48.180;11.478;2023-03-11T05:07:35;0.83;;;0.83;;
4676;SDS011;2352;48.180;11.478;2023-03-11T05:10:38;0.70;;;0.70;;
4676;SDS011;2352;48.180;11.478;2023-03-11T05:13:42;0.97;;;0.90;;
4676;SDS011;2352;48.180;11.478;2023-03-11T05:16:46;0.80;;;0.80;;
4676;SDS011;2352;48.180;11.478;2023-03-11T05:19:49;0.80;;;0.80;;
4676;SDS011;2352;48.180;11.478;2023-03-11T05:22:53;1.73;;;1.17;;
4676;SDS011;2352;48.180;11.478;2023-03-11T05:25:56;0.80;;;0.80;;
4676;SDS011;2352;48.180;11.478;2023-03-11T05:28:59;0.77;;;0.77;;
4676;SDS011;2352;48.180;11.478;2023-03-11T05:32:03;1.00;;;0.80;;
4676;SDS011;2352;48.180;11.478;2023-03-11T05:35:07;0.87;;;0.77;;
4676;SDS011;2352;48.180;11.478;2023-03-11T05:38:10;1.40;;;0.90;;
4676;SDS011;2352;48.180;11.478;2023-03-11T05:41:13;0.90;;;0.90;;
4676;SDS011;2352;48.180;11.478;2023-03-11T05:44:16;1.13;;;1.00;;
4676;SDS011;2352;48.180;11.478;2023-03-11T05:47:20;0.80;;;0.80;;
4676;SDS011;2352;48.180;11.478;2023-03-11T05:50:23;1.60;;;0.77;;
4676;SDS011;2352;48.180;11.478;2023-03-11T05:53:26;1.90;;;0.90;;
4676;SDS011;2352;48.180;11.478;2023-03-11T05:56:29;1.00;;;0.80;;
4676;SDS011;2352;48.180;11.478;2023-03-11T05:59:32;0.50;;;0.50;;
4676;SDS011;2352;48.180;11.478;2023-03-11T06:02:36;1.00;;;0.60;;
4676;SDS011;2352;48.180;11.478;2023-03-11T06:05:43;0.57;;;0.57;;
4676;SDS011;2352;48.180;11.478;2023-03-11T06:08:46;0.70;;;0.70;;
4676;SDS011;2352;48.180;11.478;2023-03-11T06:11:50;0.73;;;0.73;;
4676;SDS011;2352;48.180;11.478;2023-03-11T06:14:53;0.80;;;0.70;;
4676;SDS011;2352;48.180;11.478;2023-03-11T06:17:57;0.90;;;0.90;;
4676;SDS011;2352;48.180;11.478;2023-03-11T06:21:00;0.80;;;0.70;;
4676;SDS011;2352;48.180;11.478;2023-03-11T06:24:04;0.60;;;0.60;;
4676;SDS011;2352;48.180;11.478;2023-03-11T06:27:07;0.80;;;0.50;;
4676;SDS011;2352;48.180;11.478;2023-03-11T06:30:11;0.60;;;0.60;;
4676;SDS011;2352;48.180;11.478;2023-03-11T06:33:16;0.70;;;0.70;;
4676;SDS011;2352;48.180;11.478;2023-03-11T06:36:19;1.07;;;0.93;;
4676;SDS011;2352;48.180;11.478;2023-03-11T06:39:22;2.30;;;1.03;;
4676;SDS011;2352;48.180;11.478;2023-03-11T06:42:24;4.33;;;1.07;;
4676;SDS011;2352;48.180;11.478;2023-03-11T06:45:27;1.10;;;0.97;;
4676;SDS011;2352;48.180;11.478;2023-03-11T06:48:32;0.60;;;0.60;;
4676;SDS011;2352;48.180;11.478;2023-03-11T06:51:34;0.80;;;0.80;;
4676;SDS011;2352;48.180;11.478;2023-03-11T06:54:37;1.43;;;1.33;;
4676;SDS011;2352;48.180;11.478;2023-03-11T06:57:40;1.33;;;0.90;;
4676;SDS011;2352;48.180;11.478;2023-03-11T07:00:44;2.20;;;0.80;;
4676;SDS011;2352;48.180;11.478;2023-03-11T07:03:49;1.50;;;0.80;;
4676;SDS011;2352;48.180;11.478;2023-03-11T07:06:52;0.90;;;0.90;;
4676;SDS011;2352;48.180;11.478;2023-03-11T07:09:55;1.83;;;1.27;;
4676;SDS011;2352;48.180;11.478;2023-03-11T07:12:58;1.47;;;1.37;;
4676;SDS011;2352;48.180;11.478;2023-03-11T07:16:02;1.00;;;1.00;;
4676;SDS011;2352;48.180;11.478;2023-03-11T07:19:08;1.10;;;1.00;;
4676;SDS011;2352;48.180;11.478;2023-03-11T07:22:12;0.93;;;0.93;;
4676;SDS011;2352;48.180;11.478;2023-03-11T07:25:15;1.13;;;0.97;;
4676;SDS011;2352;48.180;11.478;2023-03-11T07:28:18;2.23;;;1.33;;
4676;SDS011;2352;48.180;11.478;2023-03-11T07:31:22;1.87;;;1.00;;
4676;SDS011;2352;48.180;11.478;2023-03-11T07:34:27;1.57;;;1.30;;
4676;SDS011;2352;48.180;11.478;2023-03-11T07:37:30;1.10;;;1.10;;
4676;SDS011;2352;48.180;11.478;2023-03-11T07:40:33;1.13;;;0.93;;
4676;SDS011;2352;48.180;11.478;2023-03-11T07:43:36;2.03;;;1.90;;
4676;SDS011;2352;48.180;11.478;2023-03-11T07:46:40;0.70;;;0.70;;
4676;SDS011;2352;48.180;11.478;2023-03-11T07:49:45;1.00;;;0.87;;
4676;SDS011;2352;48.180;11.478;2023-03-11T07:52:48;2.30;;;1.10;;
4676;SDS011;2352;48.180;11.478;2023-03-11T07:55:54;2.30;;;1.00;;
4676;SDS011;2352;48.180;11.478;2023-03-11T07:58:57;1.00;;;1.00;;
4676;SDS011;2352;48.180;11.478;2023-03-11T08:02:01;2.63;;;1.10;;
4676;SDS011;2352;48.180;11.478;2023-03-11T08:05:06;3.90;;;1.10;;
4676;SDS011;2352;48.180;11.478;2023-03-11T08:08:10;2.57;;;1.10;;
4676;SDS011;2352;48.180;11.478;2023-03-11T08:11:13;1.03;;;0.93;;
4676;SDS011;2352;48.180;11.478;2023-03-11T08:14:17;1.00;;;0.93;;
4676;SDS011;2352;48.180;11.478;2023-03-11T08:17:20;2.20;;;1.33;;
4676;SDS011;2352;48.180;11.478;2023-03-11T08:20:24;1.30;;;1.20;;
4676;SDS011;2352;48.180;11.478;2023-03-11T08:23:27;1.00;;;0.90;;
4676;SDS011;2352;48.180;11.478;2023-03-11T08:26:30;2.57;;;1.20;;
4676;SDS011;2352;48.180;11.478;2023-03-11T08:29:33;1.30;;;1.10;;
4676;SDS011;2352;48.180;11.478;2023-03-11T08:32:35;3.27;;;1.37;;
4676;SDS011;2352;48.180;11.478;2023-03-11T08:35:40;1.20;;;1.20;;
4676;SDS011;2352;48.180;11.478;2023-03-11T08:38:43;1.47;;;1.30;;
4676;SDS011;2352;48.180;11.478;2023-03-11T08:41:46;0.77;;;0.73;;
4676;SDS011;2352;48.180;11.478;2023-03-11T08:44:49;1.40;;;1.30;;
4676;SDS011;2352;48.180;11.478;2023-03-11T08:47:52;1.23;;;1.13;;
4676;SDS011;2352;48.180;11.478;2023-03-11T08:50:56;0.93;;;0.93;;
4676;SDS011;2352;48.180;11.478;2023-03-11T08:53:59;1.83;;;0.93;;
4676;SDS011;2352;48.180;11.478;2023-03-11T08:57:06;1.37;;;1.27;;
4676;SDS011;2352;48.180;11.478;2023-03-11T09:00:11;1.17;;;1.00;;
4676;SDS011;2352;48.180;11.478;2023-03-11T09:03:14;0.90;;;0.90;;
4676;SDS011;2352;48.180;11.478;2023-03-11T09:06:18;1.27;;;0.83;;
4676;SDS011;2352;48.180;11.478;2023-03-11T09:09:22;1.10;;;1.10;;
4676;SDS011;2352;48.180;11.478;2023-03-11T09:12:25;1.57;;;1.10;;
4676;SDS011;2352;48.180;11.478;2023-03-11T09:15:28;1.40;;;0.80;;
4676;SDS011;2352;48.180;11.478;2023-03-11T09:18:31;1.73;;;1.00;;
4676;SDS011;2352;48.180;11.478;2023-03-11T09:21:35;1.03;;;0.90;;
4676;SDS011;2352;48.180;11.478;2023-03-11T09:24:38;0.90;;;0.90;;
4676;SDS011;2352;48.180;11.478;2023-03-11T09:27:41;0.80;;;0.80;;
4676;SDS011;2352;48.180;11.478;2023-03-11T09:30:44;1.10;;;0.90;;
4676;SDS011;2352;48.180;11.478;2023-03-11T09:33:47;1.37;;;0.97;;
4676;SDS011;2352;48.180;11.478;2023-03-11T09:36:54;0.60;;;0.60;;
4676;SDS011;2352;48.180;11.478;2023-03-11T09:39:57;0.97;;;0.60;;
4676;SDS011;2352;48.180;11.478;2023-03-11T09:43:03;1.97;;;0.80;;
4676;SDS011;2352;48.180;11.478;2023-03-11T09:46:16;1.17;;;0.70;;
4676;SDS011;2352;48.180;11.478;2023-03-11T09:49:34;1.70;;;0.80;;
4676;SDS011;2352;48.180;11.478;2023-03-11T09:52:51;1.77;;;1.40;;
4676;SDS011;2352;48.180;11.478;2023-03-11T09:56:00;2.07;;;0.73;;
4676;SDS011;2352;48.180;11.478;2023-03-11T09:59:07;1.37;;;0.93;;
4676;SDS011;2352;48.180;11.478;2023-03-11T10:02:17;4.23;;;2.20;;
4676;SDS011;2352;48.180;11.478;2023-03-11T10:05:22;1.03;;;0.50;;
4676;SDS011;2352;48.180;11.478;2023-03-11T10:08:32;2.83;;;1.00;;
4676;SDS011;2352;48.180;11.478;2023-03-11T10:11:42;1.87;;;0.60;;
4676;SDS011;2352;48.180;11.478;2023-03-11T10:15:07;1.40;;;0.67;;
4676;SDS011;2352;48.180;11.478;2023-03-11T10:18:35;0.73;;;0.60;;
4676;SDS011;2352;48.180;11.478;2023-03-11T10:21:52;1.03;;;0.70;;
4676;SDS011;2352;48.180;11.478;2023-03-11T10:25:06;0.60;;;0.60;;
4676;SDS011;2352;48.180;11.478;2023-03-11T10:28:13;0.80;;;0.73;;
4676;SDS011;2352;48.180;11.478;2023-03-11T10:31:20;4.10;;;1.10;;
4676;SDS011;2352;48.180;11.478;2023-03-11T10:34:27;0.80;;;0.77;;
4676;SDS011;2352;48.180;11.478;2023-03-11T10:37:39;1.20;;;0.60;;
4676;SDS011;2352;48.180;11.478;2023-03-11T10:40:52;0.70;;;0.70;;
4676;SDS011;2352;48.180;11.478;2023-03-11T10:43:59;3.60;;;0.83;;
4676;SDS011;2352;48.180;11.478;2023-03-11T10:47:05;0.70;;;0.70;;
4676;SDS011;2352;48.180;11.478;2023-03-11T10:50:14;1.17;;;0.50;;
4676;SDS011;2352;48.180;11.478;2023-03-11T10:53:19;1.70;;;0.70;;
4676;SDS011;2352;48.180;11.478;2023-03-11T10:56:28;1.33;;;0.80;;
4676;SDS011;2352;48.180;11.478;2023-03-11T10:59:33;2.07;;;1.17;;
4676;SDS011;2352;48.180;11.478;2023-03-11T11:02:48;0.80;;;0.80;;
4676;SDS011;2352;48.180;11.478;2023-03-11T11:05:56;0.80;;;0.80;;
4676;SDS011;2352;48.180;11.478;2023-03-11T11:09:05;1.23;;;0.83;;
4676;SDS011;2352;48.180;11.478;2023-03-11T11:12:15;0.97;;;0.40;;
4676;SDS011;2352;48.180;11.478;2023-03-11T11:15:23;1.57;;;0.67;;
4676;SDS011;2352;48.180;11.478;2023-03-11T11:18:28;0.80;;;0.80;;
4676;SDS011;2352;48.180;11.478;2023-03-11T11:21:35;0.83;;;0.53;;
4676;SDS011;2352;48.180;11.478;2023-03-11T11:24:42;0.53;;;0.53;;
4676;SDS011;2352;48.180;11.478;2023-03-11T11:27:53;2.10;;;0.70;;
4676;SDS011;2352;48.180;11.478;2023-03-11T11:30:58;1.90;;;0.80;;
4676;SDS011;2352;48.180;11.478;2023-03-11T11:34:01;1.67;;;0.60;;
4676;SDS011;2352;48.180;11.478;2023-03-11T11:37:09;0.63;;;0.43;;
4676;SDS011;2352;48.180;11.478;2023-03-11T11:40:20;1.10;;;0.90;;
4676;SDS011;2352;48.180;11.478;2023-03-11T11:43:33;1.83;;;0.87;;
4676;SDS011;2352;48.180;11.478;2023-03-11T11:46:45;0.50;;;0.50;;
4676;SDS011;2352;48.180;11.478;2023-03-11T11:49:53;6.03;;;1.30;;
4676;SDS011;2352;48.180;11.478;2023-03-11T11:53:00;1.63;;;1.23;;
4676;SDS011;2352;48.180;11.478;2023-03-11T11:56:11;4.43;;;1.00;;
4676;SDS011;2352;48.180;11.478;2023-03-11T11:59:16;1.00;;;0.60;;
4676;SDS011;2352;48.180;11.478;2023-03-11T12:02:26;1.60;;;0.53;;
4676;SDS011;2352;48.180;11.478;2023-03-11T12:05:40;0.70;;;0.67;;
4676;SDS011;2352;48.180;11.478;2023-03-11T12:08:49;2.67;;;0.60;;
4676;SDS011;2352;48.180;11.478;2023-03-11T12:12:07;1.80;;;0.70;;
4676;SDS011;2352;48.180;11.478;2023-03-11T12:15:23;0.97;;;0.50;;
4676;SDS011;2352;48.180;11.478;2023-03-11T12:18:32;0.50;;;0.50;;
4676;SDS011;2352;48.180;11.478;2023-03-11T12:21:50;1.23;;;0.57;;
4676;SDS011;2352;48.180;11.478;2023-03-11T12:25:20;3.97;;;0.97;;
4676;SDS011;2352;48.180;11.478;2023-03-11T12:28:31;0.73;;;0.50;;
4676;SDS011;2352;48.180;11.478;2023-03-11T12:31:42;0.77;;;0.60;;
4676;SDS011;2352;48.180;11.478;2023-03-11T12:34:47;1.13;;;0.73;;
4676;SDS011;2352;48.180;11.478;2023-03-11T12:37:58;1.90;;;0.67;;
4676;SDS011;2352;48.180;11.478;2023-03-11T12:41:06;1.10;;;0.67;;
4676;SDS011;2352;48.180;11.478;2023-03-11T12:44:22;1.10;;;0.73;;
4676;SDS011;2352;48.180;11.478;2023-03-11T12:47:28;1.00;;;0.70;;
4676;SDS011;2352;48.180;11.478;2023-03-11T12:50:37;0.90;;;0.70;;
4676;SDS011;2352;48.180;11.478;2023-03-11T12:53:42;0.93;;;0.87;;
4676;SDS011;2352;48.180;11.478;2023-03-11T12:56:49;0.97;;;0.80;;
4676;SDS011;2352;48.180;11.478;2023-03-11T13:00:02;0.50;;;0.50;;
4676;SDS011;2352;48.180;11.478;2023-03-11T13:07:09;0.77;;;0.70;;
4676;SDS011;2352;48.180;11.478;2023-03-11T13:10:37;3.80;;;1.23;;
4676;SDS011;2352;48.180;11.478;2023-03-11T13:13:41;1.87;;;1.03;;
4676;SDS011;2352;48.180;11.478;2023-03-11T13:16:44;1.03;;;0.93;;
4676;SDS011;2352;48.180;11.478;2023-03-11T13:19:49;4.07;;;1.37;;
4676;SDS011;2352;48.180;11.478;2023-03-11T13:23:08;1.40;;;0.60;;
4676;SDS011;2352;48.180;11.478;2023-03-11T13:26:24;1.33;;;1.00;;
4676;SDS011;2352;48.180;11.478;2023-03-11T13:29:40;0.90;;;0.80;;
4676;SDS011;2352;48.180;11.478;2023-03-11T13:32:59;0.73;;;0.73;;
4676;SDS011;2352;48.180;11.478;2023-03-11T13:36:40;1.23;;;0.70;;
4676;SDS011;2352;48.180;11.478;2023-03-11T13:40:00;2.00;;;0.90;;
4676;SDS011;2352;48.180;11.478;2023-03-11T13:43:14;0.97;;;0.67;;
4676;SDS011;2352;48.180;11.478;2023-03-11T13:46:23;1.27;;;0.73;;
4676;SDS011;2352;48.180;11.478;2023-03-11T13:49:31;0.60;;;0.60;;
4676;SDS011;2352;48.180;11.478;2023-03-11T13:52:41;0.60;;;0.60;;
4676;SDS011;2352;48.180;11.478;2023-03-11T13:55:50;0.73;;;0.70;;
4676;SDS011;2352;48.180;11.478;2023-03-11T13:58:53;1.70;;;0.60;;
4676;SDS011;2352;48.180;11.478;2023-03-11T14:02:17;2.63;;;0.77;;
4676;SDS011;2352;48.180;11.478;2023-03-11T14:05:22;0.93;;;0.60;;
4676;SDS011;2352;48.180;11.478;2023-03-11T14:08:28;1.20;;;0.43;;
4676;SDS011;2352;48.180;11.478;2023-03-11T14:11:33;1.67;;;0.77;;
4676;SDS011;2352;48.180;11.478;2023-03-11T14:14:41;0.53;;;0.50;;
4676;SDS011;2352;48.180;11.478;2023-03-11T14:17:50;1.30;;;0.77;;
4676;SDS011;2352;48.180;11.478;2023-03-11T14:20:53;0.97;;;0.60;;
4676;SDS011;2352;48.180;11.478;2023-03-11T14:23:57;1.00;;;0.70;;
4676;SDS011;2352;48.180;11.478;2023-03-11T14:27:02;0.57;;;0.53;;
4676;SDS011;2352;48.180;11.478;2023-03-11T14:30:15;0.70;;;0.57;;
4676;SDS011;2352;48.180;11.478;2023-03-11T14:33:21;0.60;;;0.60;;
4676;SDS011;2352;48.180;11.478;2023-03-11T14:36:24;0.80;;;0.80;;
4676;SDS011;2352;48.180;11.478;2023-03-11T14:39:28;1.70;;;0.83;;
4676;SDS011;2352;48.180;11.478;2023-03-11T14:42:34;1.50;;;0.70;;
4676;SDS011;2352;48.180;11.478;2023-03-11T14:45:39;1.70;;;1.10;;
4676;SDS011;2352;48.180;11.478;2023-03-11T14:48:44;1.17;;;1.07;;
4676;SDS011;2352;48.180;11.478;2023-03-11T14:51:48;0.90;;;0.60;;
4676;SDS011;2352;48.180;11.478;2023-03-11T14:54:56;2.93;;;0.67;;
4676;SDS011;2352;48.180;11.478;2023-03-11T14:58:01;1.30;;;0.90;;
4676;SDS011;2352;48.180;11.478;2023-03-11T15:01:08;1.80;;;0.90;;
4676;SDS011;2352;48.180;11.478;2023-03-11T15:04:17;2.50;;;0.90;;
4676;SDS011;2352;48.180;11.478;2023-03-11T15:07:29;1.83;;;0.70;;
4676;SDS011;2352;48.180;11.478;2023-03-11T15:10:34;1.70;;;1.03;;
4676;SDS011;2352;48.180;11.478;2023-03-11T15:13:40;2.33;;;0.70;;
4676;SDS011;2352;48.180;11.478;2023-03-11T15:16:44;0.90;;;0.80;;
4676;SDS011;2352;48.180;11.478;2023-03-11T15:19:47;1.07;;;0.90;;
4676;SDS011;2352;48.180;11.478;2023-03-11T15:22:52;1.33;;;0.77;;
4676;SDS011;2352;48.180;11.478;2023-03-11T15:25:58;2.93;;;1.07;;
4676;SDS011;2352;48.180;11.478;2023-03-11T15:29:03;2.30;;;1.10;;
4676;SDS011;2352;48.180;11.478;2023-03-11T15:32:25;0.50;;;0.50;;
4676;SDS011;2352;48.180;11.478;2023-03-11T15:35:44;1.87;;;0.87;;
4676;SDS011;2352;48.180;11.478;2023-03-11T15:38:50;0.97;;;0.70;;
4676;SDS011;2352;48.180;11.478;2023-03-11T15:42:14;3.87;;;0.87;;
4676;SDS011;2352;48.180;11.478;2023-03-11T15:45:22;1.00;;;0.77;;
4676;SDS011;2352;48.180;11.478;2023-03-11T15:48:25;1.50;;;1.07;;
4676;SDS011;2352;48.180;11.478;2023-03-11T15:51:33;2.80;;;1.20;;
4676;SDS011;2352;48.180;11.478;2023-03-11T15:54:36;0.50;;;0.50;;
4676;SDS011;2352;48.180;11.478;2023-03-11T15:57:39;1.33;;;1.10;;
4676;SDS011;2352;48.180;11.478;2023-03-11T16:00:46;1.30;;;1.10;;
4676;SDS011;2352;48.180;11.478;2023-03-11T16:03:50;1.60;;;1.00;;
4676;SDS011;2352;48.180;11.478;2023-03-11T16:06:54;1.23;;;1.03;;
4676;SDS011;2352;48.180;11.478;2023-03-11T16:10:09;1.53;;;1.37;;
4676;SDS011;2352;48.180;11.478;2023-03-11T16:13:13;2.20;;;1.20;;
4676;SDS011;2352;48.180;11.478;2023-03-11T16:16:19;1.10;;;1.00;;
4676;SDS011;2352;48.180;11.478;2023-03-11T16:19:23;1.40;;;1.30;;
4676;SDS011;2352;48.180;11.478;2023-03-11T16:22:30;1.17;;;0.70;;
4676;SDS011;2352;48.180;11.478;2023-03-11T16:25:37;1.67;;;1.00;;
4676;SDS011;2352;48.180;11.478;2023-03-11T16:28:41;1.57;;;0.70;;
4676;SDS011;2352;48.180;11.478;2023-03-11T16:31:46;1.53;;;1.00;;
4676;SDS011;2352;48.180;11.478;2023-03-11T16:34:49;1.77;;;1.20;;
4676;SDS011;2352;48.180;11.478;2023-03-11T16:37:52;1.50;;;1.40;;
4676;SDS011;2352;48.180;11.478;2023-03-11T16:40:55;2.77;;;1.40;;
4676;SDS011;2352;48.180;11.478;2023-03-11T16:44:00;1.37;;;1.17;;
4676;SDS011;2352;48.180;11.478;2023-03-11T16:47:04;1.53;;;1.43;;
4676;SDS011;2352;48.180;11.478;2023-03-11T16:50:08;1.20;;;1.10;;
4676;SDS011;2352;48.180;11.478;2023-03-11T16:53:11;2.10;;;0.90;;
4676;SDS011;2352;48.180;11.478;2023-03-11T16:56:16;3.57;;;1.23;;
4676;SDS011;2352;48.180;11.478;2023-03-11T16:59:19;1.67;;;1.57;;
4676;SDS011;2352;48.180;11.478;2023-03-11T17:02:23;1.67;;;1.10;;
4676;SDS011;2352;48.180;11.478;2023-03-11T17:05:26;3.77;;;1.73;;
4676;SDS011;2352;48.180;11.478;2023-03-11T17:08:29;1.43;;;1.00;;
4676;SDS011;2352;48.180;11.478;2023-03-11T17:11:32;1.27;;;1.17;;
4676;SDS011;2352;48.180;11.478;2023-03-11T17:14:35;1.30;;;0.90;;
4676;SDS011;2352;48.180;11.478;2023-03-11T17:17:39;2.03;;;1.30;;
4676;SDS011;2352;48.180;11.478;2023-03-11T17:20:42;6.17;;;1.60;;
4676;SDS011;2352;48.180;11.478;2023-03-11T17:23:45;1.87;;;1.70;;
4676;SDS011;2352;48.180;11.478;2023-03-11T17:26:49;2.47;;;2.10;;
4676;SDS011;2352;48.180;11.478;2023-03-11T17:29:53;1.73;;;1.63;;
4676;SDS011;2352;48.180;11.478;2023-03-11T17:32:57;1.90;;;1.70;;
4676;SDS011;2352;48.180;11.478;2023-03-11T17:36:00;2.50;;;1.83;;
4676;SDS011;2352;48.180;11.478;2023-03-11T17:39:04;2.53;;;2.33;;
4676;SDS011;2352;48.180;11.478;2023-03-11T17:42:07;2.07;;;1.83;;
4676;SDS011;2352;48.180;11.478;2023-03-11T17:45:10;1.73;;;1.10;;
4676;SDS011;2352;48.180;11.478;2023-03-11T17:48:15;1.90;;;1.80;;
4676;SDS011;2352;48.180;11.478;2023-03-11T17:51:19;2.53;;;1.47;;
4676;SDS011;2352;48.180;11.478;2023-03-11T17:54:23;1.97;;;1.57;;
4676;SDS011;2352;48.180;11.478;2023-03-11T17:57:26;1.60;;;1.37;;
4676;SDS011;2352;48.180;11.478;2023-03-11T18:00:32;2.37;;;1.63;;
4676;SDS011;2352;48.180;11.478;2023-03-11T18:03:36;1.50;;;1.40;;
4676;SDS011;2352;48.180;11.478;2023-03-11T18:06:39;2.43;;;1.43;;
4676;SDS011;2352;48.180;11.478;2023-03-11T18:09:43;1.80;;;1.70;;
4676;SDS011;2352;48.180;11.478;2023-03-11T18:12:46;3.33;;;2.07;;
4676;SDS011;2352;48.180;11.478;2023-03-11T18:15:55;2.33;;;2.03;;
4676;SDS011;2352;48.180;11.478;2023-03-11T18:18:59;1.43;;;1.33;;
4676;SDS011;2352;48.180;11.478;2023-03-11T18:22:02;4.33;;;3.03;;
4676;SDS011;2352;48.180;11.478;2023-03-11T18:25:05;2.33;;;2.13;;
4676;SDS011;2352;48.180;11.478;2023-03-11T18:28:09;2.27;;;2.07;;
4676;SDS011;2352;48.180;11.478;2023-03-11T18:31:13;2.33;;;1.63;;
4676;SDS011;2352;48.180;11.478;2023-03-11T18:34:18;1.97;;;1.77;;
4676;SDS011;2352;48.180;11.478;2023-03-11T18:37:22;2.10;;;1.87;;
4676;SDS011;2352;48.180;11.478;2023-03-11T18:40:25;1.50;;;1.30;;
4676;SDS011;2352;48.180;11.478;2023-03-11T18:43:28;2.03;;;1.60;;
4676;SDS011;2352;48.180;11.478;2023-03-11T18:46:32;2.43;;;1.73;;
4676;SDS011;2352;48.180;11.478;2023-03-11T18:49:36;2.93;;;2.67;;
4676;SDS011;2352;48.180;11.478;2023-03-11T18:52:39;2.47;;;2.27;;
4676;SDS011;2352;48.180;11.478;2023-03-11T18:55:42;2.83;;;2.40;;
4676;SDS011;2352;48.180;11.478;2023-03-11T18:58:45;2.90;;;2.70;;